Time;durP1;ratioP1;P1;durP2;ratioP2;P2;SDS_P1;SDS_P2;PMS_P1;PMS_P2;Temp;Humidity;BMP_temperature;BMP_pressure;BME280_temperature;BME280_humidity;BME280_pressure;Samples;Min_cycle;Max_cycle;Signal;HPM_P1;HPM_P2
2023/04/02 00:02:24;;;;;;;;;4.60;4.00;;;;;11.91;61.22;100662.59;5033426;28;45334;-57
2023/04/02 00:05:29;;;;;;;;;5.60;4.20;;;;;11.88;61.49;100668.56;5033042;28;45503;-53
2023/04/02 00:08:09;;;;;;;;;4.20;4.20;;;;;11.90;61.26;100671.09;5031788;28;46615;-54
2023/04/02 00:10:54;;;;;;;;;8.20;7.20;;;;;11.92;60.99;100675.28;5031954;28;45403;-56
2023/04/02 00:13:40;;;;;;;;;8.40;4.40;;;;;11.90;60.91;100679.34;5029478;28;45420;-54
2023/04/02 00:16:07;;;;;;;;;3.40;3.40;;;;;11.91;60.80;100683.78;5016189;28;45534;-55
2023/04/02 00:18:33;;;;;;;;;3.00;3.00;;;;;11.71;60.74;100656.41;5033621;28;45630;-56
2023/04/02 00:21:15;;;;;;;;;3.60;3.60;;;;;11.86;60.36;100686.34;5015496;28;45389;-55
2023/04/02 00:23:42;;;;;;;;;3.60;3.60;;;;;11.79;60.89;100684.47;5015789;28;45413;-52
2023/04/02 00:26:20;;;;;;;;;3.40;3.40;;;;;11.77;60.65;100683.00;5033528;28;45186;-55
2023/04/02 00:28:46;;;;;;;;;4.60;3.00;;;;;11.78;60.92;100685.56;5033332;28;46250;-56
2023/04/02 00:31:11;;;;;;;;;3.25;3.25;;;;;11.66;60.67;100679.91;5033286;28;45601;-55
2023/04/02 00:33:37;;;;;;;;;5.00;3.00;;;;;11.43;60.47;100653.00;5032243;28;45374;-55
2023/04/02 00:36:05;;;;;;;;;3.25;3.25;;;;;11.75;60.91;100709.91;5035063;28;45501;-55
2023/04/02 00:38:31;;;;;;;;;7.60;7.60;;;;;11.75;60.90;100696.16;5035367;28;46256;-52
2023/04/02 00:41:05;;;;;;;;;2.00;2.00;;;;;11.70;60.63;100696.81;5036012;28;45414;-55
2023/04/02 00:43:34;;;;;;;;;4.00;3.80;;;;;11.57;60.94;100672.16;5035715;28;45386;-54
2023/04/02 00:46:03;;;;;;;;;10.20;5.80;;;;;11.74;60.92;100699.97;5035432;28;45247;-56
2023/04/02 00:49:04;;;;;;;;;5.20;4.20;;;;;11.61;60.97;100679.72;5026219;28;46102;-55
2023/04/02 00:51:47;;;;;;;;;3.80;3.00;;;;;11.74;60.77;100700.78;5018376;28;45512;-53
2023/04/02 00:54:14;;;;;;;;;3.00;2.00;;;;;11.79;60.54;100711.13;5019999;28;45395;-56
2023/04/02 00:56:42;;;;;;;;;5.60;2.80;;;;;11.71;60.73;100701.25;5018701;28;45438;-55
2023/04/02 00:59:21;;;;;;;;;6.20;4.60;;;;;11.77;60.70;100714.13;5001836;28;45644;-56
2023/04/02 01:01:53;;;;;;;;;4.80;4.80;;;;;11.74;60.64;100706.28;5019336;28;45495;-55
2023/04/02 01:04:35;;;;;;;;;4.00;4.00;;;;;11.73;60.93;100714.75;5018667;28;45494;-55
2023/04/02 01:07:05;;;;;;;;;4.60;4.00;;;;;11.77;61.25;100716.88;5018561;28;45348;-55
2023/04/02 01:09:46;;;;;;;;;4.80;4.80;;;;;11.61;61.30;100696.22;5001651;28;46188;-56
2023/04/02 01:12:57;;;;;;;;;5.00;5.00;;;;;11.77;61.25;100727.88;5035989;28;45300;-57
2023/04/02 01:15:45;;;;;;;;;7.20;4.40;;;;;11.76;61.59;100722.56;5032848;28;45421;-54
2023/04/02 01:18:30;;;;;;;;;3.20;3.20;;;;;11.77;61.83;100721.50;5018487;28;45420;-55
2023/04/02 01:21:16;;;;;;;;;3.40;3.40;;;;;11.61;61.94;100707.22;5035819;28;46247;-52
2023/04/02 01:24:04;;;;;;;;;6.00;4.00;;;;;11.65;62.46;100732.38;5034661;28;45267;-52
2023/04/02 01:26:47;;;;;;;;;5.40;4.20;;;;;11.62;62.46;100732.78;5000915;28;45419;-53
2023/04/02 01:29:16;;;;;;;;;7.60;3.40;;;;;11.51;62.73;100739.81;5018415;28;45495;-55
2023/04/02 01:31:41;;;;;;;;;1.20;1.20;;;;;11.13;63.06;100683.75;5017871;28;45556;-54
2023/04/02 01:34:08;;;;;;;;;5.50;3.50;;;;;11.47;63.06;100749.59;5018184;28;45528;-53
2023/04/02 01:36:42;;;;;;;;;2.80;2.80;;;;;11.45;63.40;100752.53;5017584;28;45399;-54
2023/04/02 01:39:23;;;;;;;;;3.60;3.60;;;;;11.44;63.11;100739.88;5036134;28;45407;-53
2023/04/02 01:42:12;;;;;;;;;1.20;1.20;;;;;11.43;63.22;100751.94;5035225;28;46364;-55
2023/04/02 01:44:42;;;;;;;;;2.00;2.00;;;;;11.33;62.88;100757.03;5017507;28;45369;-52
2023/04/02 01:47:12;;;;;;;;;2.80;1.60;;;;;11.34;63.34;100753.22;5000559;28;45385;-55
2023/04/02 01:49:39;;;;;;;;;4.00;2.80;;;;;11.26;62.99;100743.28;5050869;28;45482;-52
2023/04/02 01:52:05;;;;;;;;;2.00;2.00;;;;;11.17;63.21;100722.63;5001071;28;46027;-55
2023/04/02 01:54:30;;;;;;;;;3.20;2.20;;;;;11.39;63.20;100754.22;5017305;28;45287;-55
2023/04/02 01:56:56;;;;;;;;;4.25;3.25;;;;;11.31;63.15;100749.00;5000851;28;45282;-55
2023/04/02 01:59:21;;;;;;;;;3.25;3.25;;;;;11.39;62.87;100745.16;5035837;28;45277;-55
2023/04/02 02:01:52;;;;;;;;;1.00;1.00;;;;;11.36;63.28;100748.34;5000218;28;46004;-53
2023/04/02 02:04:17;;;;;;;;;2.20;2.20;;;;;11.24;62.77;100723.44;4986284;28;45500;-53
2023/04/02 02:06:43;;;;;;;;;1.25;1.25;;;;;11.46;62.77;100754.22;5053630;28;45330;-53
2023/04/02 02:09:13;;;;;;;;;2.50;2.00;;;;;11.48;63.26;100752.09;5037603;28;45588;-53
2023/04/02 02:11:39;;;;;;;;;2.20;2.20;;;;;11.47;63.31;100752.34;5070447;28;48639;-54
2023/04/02 02:14:11;;;;;;;;;1.50;1.50;;;;;11.44;62.98;100763.75;5055259;28;45426;-54
2023/04/02 02:16:40;;;;;;;;;3.60;2.60;;;;;11.24;63.34;100738.03;5037828;28;45386;-56
2023/04/02 02:19:06;;;;;;;;;4.00;1.00;;;;;11.33;63.49;100755.13;5021459;28;45429;-55
2023/04/02 02:21:31;;;;;;;;;2.60;1.00;;;;;11.40;63.74;100763.34;5037125;28;46488;-54
2023/04/02 02:23:57;;;;;;;;;2.00;2.00;;;;;11.34;63.44;100755.97;5054414;28;45536;-53
2023/04/02 02:26:22;;;;;;;;;1.00;1.00;;;;;11.37;63.84;100775.59;5020793;28;45470;-53
2023/04/02 02:28:48;;;;;;;;;1.00;1.00;;;;;11.29;63.86;100769.50;5055236;28;45533;-56
2023/04/02 02:31:18;;;;;;;;;2.50;2.50;;;;;11.35;64.54;100779.63;5054053;28;46107;-57
2023/04/02 02:33:51;;;;;;;;;2.60;2.60;;;;;11.25;64.68;100775.44;5070328;28;45468;-56
2023/04/02 02:36:23;;;;;;;;;3.40;2.00;;;;;11.27;65.18;100799.97;5070594;28;45212;-54
2023/04/02 02:39:01;;;;;;;;;1.00;1.00;;;;;11.21;65.60;100798.91;5037294;28;45672;-55
2023/04/02 02:41:41;;;;;;;;;2.00;2.00;;;;;11.10;66.06;100789.41;5040196;28;46212;-53
2023/04/02 02:44:46;;;;;;;;;1.60;1.60;;;;;11.17;66.64;100796.81;5049513;28;45381;-54
2023/04/02 02:47:17;;;;;;;;;2.40;2.40;;;;;11.19;66.82;100802.91;4972411;28;45512;-54
2023/04/02 02:49:48;;;;;;;;;1.00;0.00;;;;;11.05;66.44;100791.94;4940834;28;45519;-53
2023/04/02 02:52:18;;;;;;;;;1.00;1.00;;;;;11.09;66.86;100809.72;4972497;28;46401;-55
2023/04/02 02:54:47;;;;;;;;;1.80;1.80;;;;;11.06;67.53;100796.38;5049413;28;45558;-54
2023/04/02 02:57:15;;;;;;;;;1.00;1.00;;;;;11.11;67.95;100812.25;5016404;28;45401;-55
2023/04/02 02:59:41;;;;;;;;;1.20;1.20;;;;;11.13;67.88;100812.88;5016721;28;45537;-55
2023/04/02 03:02:06;;;;;;;;;2.00;2.00;;;;;10.80;68.11;100764.31;5032454;28;45469;-56
2023/04/02 03:04:34;;;;;;;;;1.75;1.75;;;;;11.06;68.04;100818.34;5049824;28;45273;-52
2023/04/02 03:07:00;;;;;;;;;0.80;0.80;;;;;11.05;67.94;100818.59;5032986;28;45346;-56
2023/04/02 03:09:32;;;;;;;;;1.00;1.00;;;;;10.98;67.45;100815.84;5050047;28;45473;-55
2023/04/02 03:12:28;;;;;;;;;1.60;1.00;;;;;10.79;68.42;100801.91;5034013;28;45790;-56
2023/04/02 03:15:01;;;;;;;;;0.80;0.00;;;;;10.88;67.90;100830.00;5034144;28;45501;-54
2023/04/02 03:17:45;;;;;;;;;1.20;1.00;;;;;10.71;68.36;100800.25;5032192;28;45515;-55
2023/04/02 03:20:13;;;;;;;;;1.00;1.00;;;;;10.88;67.79;100829.16;5048910;28;45485;-55
2023/04/02 03:23:07;;;;;;;;;0.00;0.00;;;;;10.82;68.68;100836.34;5033712;28;46301;-55
2023/04/02 03:26:01;;;;;;;;;0.60;0.60;;;;;10.83;67.78;100846.25;5048217;28;45469;-55
2023/04/02 03:28:28;;;;;;;;;1.00;1.00;;;;;10.78;68.44;100840.56;5013525;28;45188;-54
2023/04/02 03:30:58;;;;;;;;;0.00;0.00;;;;;10.79;67.88;100845.84;5034359;28;45394;-56
2023/04/02 03:33:27;;;;;;;;;0.00;0.00;;;;;10.68;68.27;100852.81;5033533;28;45691;-54
2023/04/02 03:36:03;;;;;;;;;0.60;0.40;;;;;10.73;68.43;100863.16;5033939;28;45506;-54
2023/04/02 03:38:34;;;;;;;;;1.00;1.00;;;;;10.51;67.62;100830.41;5048905;28;45454;-54
2023/04/02 03:41:01;;;;;;;;;0.40;0.40;;;;;10.67;67.68;100856.59;5049702;28;45599;-55
2023/04/02 03:43:33;;;;;;;;;0.80;0.80;;;;;10.65;67.08;100858.72;5015429;28;45473;-55
2023/04/02 03:46:09;;;;;;;;;1.00;1.00;;;;;10.62;67.66;100850.91;5016946;28;45363;-56
2023/04/02 03:48:40;;;;;;;;;3.00;1.60;;;;;10.69;67.13;100859.97;5000010;28;45402;-55
2023/04/02 03:51:17;;;;;;;;;1.60;1.60;;;;;10.66;67.34;100865.91;4999881;28;45396;-56
2023/04/02 03:53:42;;;;;;;;;3.60;2.80;;;;;10.67;66.69;100869.50;5005509;28;45497;-55
2023/04/02 03:56:08;;;;;;;;;2.75;2.75;;;;;10.66;66.82;100870.53;5043482;28;45397;-54
2023/04/02 03:58:47;;;;;;;;;7.00;2.00;;;;;10.70;67.06;100877.31;5015526;28;45407;-55
2023/04/02 04:01:30;;;;;;;;;3.00;2.40;;;;;10.70;66.85;100897.38;5016363;28;45325;-54
2023/04/02 04:04:00;;;;;;;;;6.20;4.80;;;;;10.69;66.38;100903.06;5015954;28;46533;-55
2023/04/02 04:06:28;;;;;;;;;4.00;4.00;;;;;10.63;67.07;100887.44;5015687;28;45502;-54
2023/04/02 04:09:09;;;;;;;;;3.40;3.00;;;;;10.64;67.31;100895.47;5016544;28;45228;-53
2023/04/02 04:11:37;;;;;;;;;6.00;5.40;;;;;10.63;67.17;100899.28;5037234;28;45398;-52
2023/04/02 04:14:17;;;;;;;;;3.40;3.40;;;;;10.66;67.02;100893.34;5002624;28;46211;-54
2023/04/02 04:16:52;;;;;;;;;6.60;5.00;;;;;10.61;66.75;100906.84;5035757;28;45674;-56
2023/04/02 04:19:23;;;;;;;;;4.00;4.00;;;;;10.63;66.18;100902.03;5035905;28;45551;-54
2023/04/02 04:21:48;;;;;;;;;7.00;7.00;;;;;10.64;66.43;100917.44;5037119;28;45366;-52
2023/04/02 04:24:22;;;;;;;;;9.75;7.50;;;;;10.52;66.54;100892.47;5018837;28;45838;-56
2023/04/02 04:26:57;;;;;;;;;10.40;5.80;;;;;10.61;65.93;100915.09;5018820;28;45606;-55
2023/04/02 04:29:45;;;;;;;;;8.60;8.40;;;;;10.60;66.45;100918.03;5036005;28;45387;-52
2023/04/02 04:32:15;;;;;;;;;8.40;7.00;;;;;10.55;66.49;100916.78;5037541;28;45248;-57
2023/04/02 04:34:45;;;;;;;;;7.00;7.00;;;;;10.52;66.74;100911.69;5036599;28;47323;-56
2023/04/02 04:37:24;;;;;;;;;10.00;8.40;;;;;10.52;66.62;100917.16;5019171;28;45350;-55
2023/04/02 04:40:08;;;;;;;;;10.40;9.80;;;;;10.55;66.69;100919.50;5019107;28;45379;-52
2023/04/02 04:42:35;;;;;;;;;3.40;3.40;;;;;10.33;66.97;100894.09;5016804;28;45572;-55
2023/04/02 04:45:06;;;;;;;;;6.40;6.40;;;;;10.50;66.46;100940.38;5015476;28;46679;-55
2023/04/02 04:47:34;;;;;;;;;9.40;9.40;;;;;10.37;65.96;100922.81;5016765;28;45801;-53
2023/04/02 04:50:07;;;;;;;;;6.60;6.60;;;;;10.41;66.48;100935.06;4982518;28;45437;-52
2023/04/02 04:52:35;;;;;;;;;10.80;8.60;;;;;10.38;66.29;100949.19;4999302;28;45574;-52
2023/04/02 04:55:00;;;;;;;;;10.80;9.80;;;;;10.14;66.00;100907.53;4998183;28;46376;-56
2023/04/02 04:57:30;;;;;;;;;8.25;8.25;;;;;10.26;66.25;100920.66;4999244;28;45408;-55
2023/04/02 05:00:12;;;;;;;;;8.00;8.00;;;;;10.47;66.97;100955.38;5018311;28;45373;-55
2023/04/02 05:02:47;;;;;;;;;11.40;9.60;;;;;10.22;66.20;100913.88;5018633;28;45343;-55
2023/04/02 05:05:24;;;;;;;;;8.20;5.40;;;;;10.28;66.68;100935.00;5035129;28;47343;-52
2023/04/02 05:07:57;;;;;;;;;10.20;10.20;;;;;10.44;66.74;100966.75;5001972;28;45363;-53
2023/04/02 05:10:43;;;;;;;;;15.80;15.00;;;;;10.44;66.81;100970.38;5035652;28;45449;-52
2023/04/02 05:13:46;;;;;;;;;16.60;14.40;;;;;10.23;66.74;100937.50;5018288;28;45622;-52
2023/04/02 05:16:32;;;;;;;;;9.60;9.60;;;;;10.50;66.48;100981.53;5004173;28;45918;-54
2023/04/02 05:19:11;;;;;;;;;13.60;13.00;;;;;10.38;66.56;100987.63;5035517;28;45363;-55
2023/04/02 05:21:58;;;;;;;;;14.40;13.60;;;;;10.40;67.04;101001.97;5035062;28;45223;-54
2023/04/02 05:24:41;;;;;;;;;12.80;11.20;;;;;10.36;66.48;101002.59;5020344;28;45470;-53
2023/04/02 05:27:31;;;;;;;;;11.80;10.40;;;;;10.29;66.09;100991.56;5018602;28;45715;-55
2023/04/02 05:30:13;;;;;;;;;12.80;9.80;;;;;10.23;66.74;101000.59;5017807;28;45377;-53
2023/04/02 05:32:45;;;;;;;;;9.60;9.60;;;;;10.21;66.50;100999.97;5018833;28;45994;-52
2023/04/02 05:35:17;;;;;;;;;16.20;14.20;;;;;10.04;66.64;100970.16;5051478;28;45460;-53
2023/04/02 05:37:43;;;;;;;;;15.00;9.60;;;;;10.14;66.10;100984.31;5034265;28;46377;-53
2023/04/02 05:40:21;;;;;;;;;13.60;10.60;;;;;10.32;66.46;101004.88;5017887;28;45295;-55
2023/04/02 05:42:48;;;;;;;;;13.60;11.80;;;;;10.23;66.82;101000.59;5033010;28;45446;-55
2023/04/02 05:45:30;;;;;;;;;16.40;11.00;;;;;10.25;66.90;101017.72;5051097;28;45567;-53
2023/04/02 05:48:00;;;;;;;;;7.00;7.00;;;;;10.25;66.79;101029.53;5017973;28;46018;-54
2023/04/02 05:50:32;;;;;;;;;7.80;7.80;;;;;10.23;65.81;101028.91;5018156;28;45377;-54
2023/04/02 05:53:03;;;;;;;;;8.40;4.20;;;;;10.28;66.39;101031.03;5017726;28;45326;-56
2023/04/02 05:55:38;;;;;;;;;9.00;9.00;;;;;10.23;66.00;101026.16;5017656;28;45348;-52
2023/04/02 05:58:26;;;;;;;;;10.00;8.80;;;;;10.30;66.77;101023.47;5050069;28;46592;-53
2023/04/02 06:01:06;;;;;;;;;8.40;8.40;;;;;10.36;66.87;101035.50;5034926;28;45228;-54
2023/04/02 06:03:52;;;;;;;;;13.00;10.40;;;;;10.35;67.27;101029.16;5049838;28;45454;-56
2023/04/02 06:06:42;;;;;;;;;11.40;11.40;;;;;10.30;66.66;101034.44;5032047;27;45653;-55
2023/04/02 06:09:26;;;;;;;;;13.20;11.20;;;;;10.23;67.48;101045.34;5052977;28;46111;-53
2023/04/02 06:12:09;;;;;;;;;8.60;5.00;;;;;10.17;67.88;101044.28;5055175;28;45299;-56
2023/04/02 06:14:36;;;;;;;;;13.00;8.80;;;;;10.09;67.51;101027.97;5055464;28;45401;-54
2023/04/02 06:17:01;;;;;;;;;15.40;10.40;;;;;10.20;68.22;101039.44;5055592;28;45210;-55
2023/04/02 06:19:30;;;;;;;;;9.50;9.50;;;;;10.24;67.56;101043.47;5036447;28;46477;-55
2023/04/02 06:22:06;;;;;;;;;7.20;7.20;;;;;9.84;67.04;100989.22;5020675;28;45430;-52
2023/04/02 06:24:32;;;;;;;;;9.20;9.00;;;;;10.26;67.42;101055.91;5037421;28;45316;-56
2023/04/02 06:27:01;;;;;;;;;8.50;7.25;;;;;10.27;67.83;101065.88;5020109;28;45564;-52
2023/04/02 06:29:37;;;;;;;;;11.20;9.20;;;;;10.26;67.32;101057.84;5053302;28;46522;-54
2023/04/02 06:32:02;;;;;;;;;12.00;9.60;;;;;10.35;67.51;101077.72;5054551;28;45381;-55
2023/04/02 06:34:29;;;;;;;;;7.25;7.25;;;;;10.27;67.22;101073.22;5036724;28;45421;-54
2023/04/02 06:36:56;;;;;;;;;11.80;9.60;;;;;10.23;67.10;101075.53;5070660;28;45411;-55
2023/04/02 06:39:23;;;;;;;;;7.60;6.80;;;;;10.26;67.30;101077.03;5053193;28;45455;-53
2023/04/02 06:42:03;;;;;;;;;8.00;8.00;;;;;10.29;66.75;101074.72;5040935;28;45169;-55
2023/04/02 06:44:31;;;;;;;;;5.20;3.20;;;;;10.25;67.25;101095.38;5034336;28;45378;-54
2023/04/02 06:46:58;;;;;;;;;7.40;6.80;;;;;10.15;66.59;101079.28;5050369;28;45544;-54
2023/04/02 06:49:36;;;;;;;;;6.40;6.40;;;;;10.21;67.02;101093.25;5034186;28;46515;-55
2023/04/02 06:52:03;;;;;;;;;8.40;7.00;;;;;9.89;67.17;101042.41;5034661;28;45381;-55
2023/04/02 06:54:28;;;;;;;;;7.40;6.20;;;;;10.11;66.54;101090.84;5049635;28;45501;-54
2023/04/02 06:56:57;;;;;;;;;11.00;8.75;;;;;10.15;67.48;101112.19;5033639;28;45445;-57
2023/04/02 06:59:22;;;;;;;;;8.40;8.00;;;;;10.14;66.53;101098.69;5034672;28;46557;-56
2023/04/02 07:02:05;;;;;;;;;7.25;7.00;;;;;9.94;67.17;101060.16;5049868;28;45256;-55
2023/04/02 07:04:30;;;;;;;;;9.80;6.60;;;;;10.02;67.19;101073.69;5016995;28;45395;-53
2023/04/02 07:06:56;;;;;;;;;7.75;5.25;;;;;10.15;66.47;101094.91;5034949;28;45398;-52
2023/04/02 07:09:22;;;;;;;;;9.25;8.00;;;;;10.21;67.17;101106.97;5034603;28;46338;-55
2023/04/02 07:11:47;;;;;;;;;12.20;8.20;;;;;10.22;67.25;101115.00;5034292;28;45382;-54
2023/04/02 07:14:13;;;;;;;;;10.00;8.00;;;;;10.12;66.55;101101.63;5034408;28;45283;-53
2023/04/02 07:16:38;;;;;;;;;10.50;8.25;;;;;10.28;67.09;101124.31;5034840;28;45487;-52
2023/04/02 07:19:04;;;;;;;;;8.75;8.75;;;;;10.29;66.52;101134.22;5033945;28;46690;-53
2023/04/02 07:21:30;;;;;;;;;8.00;7.25;;;;;10.03;67.36;101100.06;5034648;28;45172;-54
2023/04/02 07:23:55;;;;;;;;;9.00;8.00;;;;;10.04;66.90;101102.63;5034006;28;45368;-52
2023/04/02 07:26:24;;;;;;;;;10.25;7.75;;;;;10.34;66.85;101148.19;5050036;28;45242;-52
2023/04/02 07:28:49;;;;;;;;;10.00;8.60;;;;;10.37;66.20;101150.56;5049054;28;47355;-56
2023/04/02 07:31:16;;;;;;;;;9.00;9.00;;;;;10.35;66.68;101157.28;5034199;28;45424;-57
2023/04/02 07:33:42;;;;;;;;;9.20;9.20;;;;;10.21;66.46;101164.56;5034270;28;45912;-55
2023/04/02 07:36:11;;;;;;;;;8.75;8.25;;;;;10.15;66.68;101166.22;5049811;28;46063;-57
2023/04/02 07:38:37;;;;;;;;;8.20;8.00;;;;;9.96;67.04;101141.16;5015911;28;46347;-53
2023/04/02 07:41:06;;;;;;;;;8.75;8.25;;;;;10.19;66.32;101169.41;5049020;28;45366;-56
2023/04/02 07:43:31;;;;;;;;;10.40;10.00;;;;;10.16;66.77;101156.94;5034009;28;45393;-53
2023/04/02 07:45:57;;;;;;;;;15.25;8.50;;;;;10.21;67.36;101175.53;5037705;28;45414;-52
2023/04/02 07:48:22;;;;;;;;;10.25;8.50;;;;;10.23;67.42;101178.91;5037648;28;45640;-55
2023/04/02 07:50:48;;;;;;;;;16.25;9.25;;;;;10.15;67.29;101175.28;5019343;28;45371;-53
2023/04/02 07:53:33;;;;;;;;;9.25;9.25;;;;;9.94;66.84;101148.75;5037682;28;45426;-54
2023/04/02 07:56:00;;;;;;;;;12.60;12.20;;;;;10.02;67.32;101192.47;5033313;27;45518;-53
2023/04/02 07:58:25;;;;;;;;;10.60;10.60;;;;;9.93;67.64;101188.16;5035594;28;46730;-52
2023/04/02 08:00:51;;;;;;;;;10.50;10.25;;;;;9.78;68.14;101177.28;5033401;28;45433;-55
2023/04/02 08:03:17;;;;;;;;;9.75;9.75;;;;;9.80;67.52;101177.94;5035041;28;45161;-55
2023/04/02 08:05:42;;;;;;;;;9.25;9.25;;;;;9.83;68.52;101190.41;5019564;28;46306;-53
2023/04/02 08:08:08;;;;;;;;;9.75;9.75;;;;;9.71;68.26;101170.91;5037199;28;45386;-52
2023/04/02 08:10:33;;;;;;;;;12.50;9.75;;;;;9.83;68.29;101201.38;5037116;28;45402;-54
2023/04/02 08:12:59;;;;;;;;;10.75;9.75;;;;;9.81;68.67;101211.69;5019426;28;45434;-54
2023/04/02 08:15:24;;;;;;;;;8.25;8.25;;;;;9.75;68.23;101203.19;5019265;28;45384;-54
2023/04/02 08:17:50;;;;;;;;;9.25;8.00;;;;;9.82;68.23;101207.91;5037345;28;45990;-52
2023/04/02 08:20:17;;;;;;;;;19.75;14.75;;;;;9.83;69.26;101218.66;5036751;28;45375;-53
2023/04/02 08:22:44;;;;;;;;;12.60;11.20;;;;;9.84;68.77;101219.50;5037073;28;45421;-53
2023/04/02 08:25:09;;;;;;;;;10.20;8.60;;;;;9.67;68.22;101199.72;5037119;28;45299;-55
2023/04/02 08:27:35;;;;;;;;;10.00;10.00;;;;;9.83;68.82;101223.31;5036966;28;45403;-55
2023/04/02 08:30:01;;;;;;;;;8.00;8.00;;;;;9.90;69.34;101229.69;5037226;28;45325;-56
2023/04/02 08:32:27;;;;;;;;;14.00;13.00;;;;;9.94;69.01;101224.66;5037323;28;45309;-52
2023/04/02 08:34:53;;;;;;;;;12.00;9.40;;;;;9.74;69.05;101197.91;5037152;28;45440;-55
2023/04/02 08:37:18;;;;;;;;;19.75;14.75;;;;;9.71;68.90;101201.06;5002229;28;47311;-55
2023/04/02 08:39:44;;;;;;;;;14.00;14.00;;;;;9.96;68.23;101233.53;5018636;28;45477;-55
2023/04/02 08:42:37;;;;;;;;;12.00;11.75;;;;;9.99;67.93;101242.22;5036725;28;45386;-56
2023/04/02 08:45:31;;;;;;;;;13.40;12.80;;;;;9.93;67.98;101233.94;5019115;28;45308;-56
2023/04/02 08:47:57;;;;;;;;;12.20;8.00;;;;;9.70;68.19;101183.75;5036620;28;45288;-54
2023/04/02 08:50:39;;;;;;;;;14.00;12.20;;;;;10.08;67.07;101229.22;5036012;28;45416;-55
2023/04/02 08:53:07;;;;;;;;;13.60;9.80;;;;;10.21;66.93;101250.47;5034587;28;45269;-54
2023/04/02 08:55:47;;;;;;;;;16.80;12.40;;;;;10.29;66.68;101257.69;5034265;28;45394;-54
2023/04/02 08:58:22;;;;;;;;;15.00;13.60;;;;;10.35;66.58;101265.13;5036371;28;46851;-51
2023/04/02 09:00:48;;;;;;;;;14.60;14.60;;;;;10.38;66.43;101278.47;5051611;28;45547;-51
2023/04/02 09:03:19;;;;;;;;;17.75;17.00;;;;;10.39;66.19;101279.31;5051581;28;45430;-55
2023/04/02 09:05:45;;;;;;;;;16.00;13.80;;;;;10.26;66.19;101269.06;5051206;28;45350;-54
2023/04/02 09:08:21;;;;;;;;;11.50;11.50;;;;;10.36;65.92;101283.28;5034703;28;45447;-55
2023/04/02 09:11:05;;;;;;;;;15.80;13.00;;;;;10.44;65.80;101285.09;5050997;28;45395;-53
2023/04/02 09:13:32;;;;;;;;;14.40;14.40;;;;;10.47;66.20;101297.56;5035743;28;45525;-59
2023/04/02 09:16:09;;;;;;;;;11.00;9.60;;;;;10.44;65.53;101293.31;5013693;28;46918;-56
2023/04/02 09:18:34;;;;;;;;;12.80;12.20;;;;;10.42;65.00;101290.75;5035379;28;45813;-56
2023/04/02 09:21:02;;;;;;;;;14.00;12.25;;;;;10.14;64.71;101274.25;5025159;28;45919;-59
2023/04/02 09:23:27;;;;;;;;;9.80;8.60;;;;;10.23;64.53;101297.75;5032435;28;45481;-52
2023/04/02 09:25:53;;;;;;;;;10.00;10.00;;;;;10.37;65.76;101314.34;5023391;28;45722;-57
2023/04/02 09:28:20;;;;;;;;;9.00;9.00;;;;;10.37;64.82;101312.44;5019724;28;46517;-58
2023/04/02 09:31:14;;;;;;;;;14.00;10.00;;;;;10.46;65.43;101324.16;4987984;28;45474;-54
2023/04/02 09:33:47;;;;;;;;;11.20;10.20;;;;;10.43;64.73;101325.41;5009910;28;45585;-57
2023/04/02 09:36:36;;;;;;;;;10.60;10.00;;;;;10.51;65.39;101323.59;5033209;28;45447;-55
2023/04/02 09:39:05;;;;;;;;;13.80;12.00;;;;;10.52;64.33;101326.09;5048260;28;46579;-59
2023/04/02 09:41:32;;;;;;;;;8.80;8.60;;;;;10.52;64.35;101319.78;5032469;28;45773;-59
2023/04/02 09:44:22;;;;;;;;;12.20;12.20;;;;;10.56;63.72;101343.03;5014988;28;45548;-55
2023/04/02 09:46:52;;;;;;;;;18.20;14.40;;;;;10.50;64.22;101332.84;5015429;28;45703;-55
2023/04/02 09:49:20;;;;;;;;;15.40;12.60;;;;;10.48;64.30;101340.44;5027717;28;45756;-56
2023/04/02 09:51:45;;;;;;;;;8.00;6.40;;;;;10.50;64.91;101341.06;5032445;28;45538;-59
2023/04/02 09:54:13;;;;;;;;;12.75;10.50;;;;;10.44;64.75;101351.81;5034880;28;46232;-58
2023/04/02 09:57:02;;;;;;;;;13.20;10.00;;;;;10.37;64.44;101350.88;5032187;28;45430;-59
2023/04/02 09:59:28;;;;;;;;;15.40;13.00;;;;;10.30;64.26;101306.06;5011522;28;45587;-60
2023/04/02 10:01:53;;;;;;;;;13.50;12.75;;;;;10.48;64.44;101329.44;5015672;28;45684;-54
2023/04/02 10:04:35;;;;;;;;;15.00;12.75;;;;;10.46;64.06;101315.09;5034211;28;45647;-52
2023/04/02 10:07:01;;;;;;;;;12.00;10.40;;;;;10.43;64.08;101325.41;5032628;28;45545;-54
2023/04/02 10:09:31;;;;;;;;;18.00;15.20;;;;;10.47;65.30;101330.50;5032990;28;45742;-55
2023/04/02 10:11:58;;;;;;;;;14.80;13.60;;;;;10.65;64.20;101360.22;5034631;28;45370;-54
2023/04/02 10:14:34;;;;;;;;;14.00;12.80;;;;;10.63;64.73;101363.19;5033440;28;45461;-53
2023/04/02 10:17:14;;;;;;;;;16.00;13.00;;;;;10.56;64.19;101370.47;5035086;28;45489;-52
2023/04/02 10:19:41;;;;;;;;;14.20;11.80;;;;;10.48;65.00;101382.47;5034955;28;45548;-52
2023/04/02 10:22:15;;;;;;;;;14.80;12.20;;;;;10.37;64.22;101377.44;5034762;28;45358;-55
2023/04/02 10:24:40;;;;;;;;;10.80;9.00;;;;;10.24;63.97;101361.72;5017227;28;45371;-54
2023/04/02 10:27:21;;;;;;;;;16.00;14.25;;;;;10.39;64.12;101376.22;5034791;28;45575;-54
2023/04/02 10:30:14;;;;;;;;;11.40;9.40;;;;;10.49;63.62;101386.03;5034763;28;46815;-52
2023/04/02 10:32:59;;;;;;;;;9.40;8.00;;;;;10.48;62.89;101409.91;5035003;28;45390;-54
2023/04/02 10:35:37;;;;;;;;;10.60;8.00;;;;;10.37;63.81;101399.41;5002390;28;45426;-52
2023/04/02 10:38:10;;;;;;;;;10.20;10.20;;;;;10.31;63.64;101398.28;5034795;28;45356;-54
2023/04/02 10:40:36;;;;;;;;;16.40;11.20;;;;;10.40;63.72;101408.09;5034536;28;45338;-52
2023/04/02 10:43:23;;;;;;;;;15.20;11.80;;;;;10.39;63.81;101417.38;5033921;28;45263;-55
2023/04/02 10:45:55;;;;;;;;;8.00;8.00;;;;;10.35;63.41;101396.84;5034815;28;45323;-57
2023/04/02 10:48:29;;;;;;;;;15.40;12.20;;;;;10.55;63.18;101404.47;5017247;28;45382;-55
2023/04/02 10:51:08;;;;;;;;;13.60;13.00;;;;;10.55;63.06;101401.72;5011845;28;46445;-55
2023/04/02 10:53:39;;;;;;;;;15.20;11.20;;;;;10.56;64.02;101412.50;5016086;28;45371;-54
2023/04/02 10:56:08;;;;;;;;;16.00;12.80;;;;;10.42;62.60;101380.47;5033958;28;45460;-52
2023/04/02 10:58:36;;;;;;;;;9.20;9.00;;;;;10.55;62.76;101421.81;5016093;28;45408;-51
2023/04/02 11:01:08;;;;;;;;;10.00;7.00;;;;;10.60;63.09;101421.22;5016213;28;46940;-55
2023/04/02 11:04:07;;;;;;;;;21.20;16.00;;;;;10.68;63.08;101420.25;5015869;28;45463;-53
2023/04/02 11:06:51;;;;;;;;;13.00;10.80;;;;;10.79;63.20;101429.84;5033044;28;45581;-55
2023/04/02 11:09:22;;;;;;;;;16.00;14.00;;;;;10.70;63.48;101413.50;5016767;28;45407;-55
2023/04/02 11:11:50;;;;;;;;;14.80;13.80;;;;;10.85;63.14;101429.06;4999820;28;46988;-54
2023/04/02 11:14:24;;;;;;;;;16.60;15.60;;;;;10.68;63.39;101396.34;5016433;28;45616;-55
2023/04/02 11:16:50;;;;;;;;;15.20;14.00;;;;;10.72;63.46;101402.31;5034097;28;45574;-57
2023/04/02 11:19:15;;;;;;;;;16.00;14.60;;;;;10.64;62.82;101406.06;5034118;28;45443;-56
2023/04/02 11:21:47;;;;;;;;;14.75;13.25;;;;;10.57;63.18;101395.00;5033932;28;46647;-51
2023/04/02 11:24:35;;;;;;;;;21.60;17.80;;;;;10.89;63.16;101444.06;5033364;28;45505;-54
2023/04/02 11:27:10;;;;;;;;;18.80;15.40;;;;;10.78;63.00;101445.47;5033772;28;45476;-55
2023/04/02 11:29:45;;;;;;;;;15.20;13.20;;;;;10.55;63.47;101405.34;5033966;28;45568;-53
2023/04/02 11:32:14;;;;;;;;;17.80;16.00;;;;;10.83;62.60;101444.84;5016959;28;45559;-55
2023/04/02 11:34:39;;;;;;;;;19.60;18.40;;;;;10.87;62.46;101459.91;5033538;28;45369;-56
2023/04/02 11:37:08;;;;;;;;;17.50;16.00;;;;;10.85;62.58;101451.84;5021268;28;45311;-56
2023/04/02 11:39:55;;;;;;;;;21.00;16.20;;;;;10.87;63.00;101454.41;5030257;28;45540;-56
2023/04/02 11:42:28;;;;;;;;;16.80;16.00;;;;;10.80;62.77;101440.63;5005303;28;45981;-56
2023/04/02 11:44:55;;;;;;;;;19.20;17.20;;;;;10.60;62.70;101434.94;5024435;28;45407;-57
2023/04/02 11:47:24;;;;;;;;;21.40;14.40;;;;;10.64;62.18;101458.22;5062580;28;45530;-56